sensor_id;sensor_type;location;lat;lon;timestamp;pressure;altitude;pressure_sealevel;temperature;humidity
68891;BME280;55932;48.702;8.884;2022-12-07T00:01:21;96130;;;3.3;75
68891;BME280;55932;48.702;8.884;2022-12-07T00:03:51;96130;;;3.2;75
68891;BME280;55932;48.702;8.884;2022-12-07T00:06:21;96130;;;3.2;75
68891;BME280;55932;48.702;8.884;2022-12-07T00:08:52;96130;;;3.2;75
68891;BME280;55932;48.702;8.884;2022-12-07T00:11:22;96140;;;3.2;75.5
68891;BME280;55932;48.702;8.884;2022-12-07T00:16:30;96140;;;3.4;75
68891;BME280;55932;48.702;8.884;2022-12-07T00:19:01;96130;;;3.3;75
68891;BME280;55932;48.702;8.884;2022-12-07T00:21:33;96130;;;3.3;75
68891;BME280;55932;48.702;8.884;2022-12-07T00:28:58;96130;;;3.1;75.5
68891;BME280;55932;48.702;8.884;2022-12-07T00:31:29;96130;;;3.1;76
68891;BME280;55932;48.702;8.884;2022-12-07T00:33:59;96120;;;3.1;76
68891;BME280;55932;48.702;8.884;2022-12-07T00:36:29;96130;;;3.2;75.5
68891;BME280;55932;48.702;8.884;2022-12-07T00:39:00;96130;;;3.2;75.5
68891;BME280;55932;48.702;8.884;2022-12-07T00:41:31;96130;;;3.2;75.5
68891;BME280;55932;48.702;8.884;2022-12-07T00:44:02;96130;;;3.3;75.5
68891;BME280;55932;48.702;8.884;2022-12-07T00:46:32;96120;;;3.1;75.5
68891;BME280;55932;48.702;8.884;2022-12-07T00:49:03;96130;;;3.1;75.5
68891;BME280;55932;48.702;8.884;2022-12-07T00:51:34;96120;;;3.1;75.5
68891;BME280;55932;48.702;8.884;2022-12-07T00:59:10;96120;;;3;76
68891;BME280;55932;48.702;8.884;2022-12-07T01:04:14;96120;;;3;75.5
68891;BME280;55932;48.702;8.884;2022-12-07T01:06:45;96120;;;3;75.5
68891;BME280;55932;48.702;8.884;2022-12-07T01:09:16;96120;;;3;75.5
68891;BME280;55932;48.702;8.884;2022-12-07T01:11:47;96130;;;3;75.5
68891;BME280;55932;48.702;8.884;2022-12-07T01:14:24;96130;;;3;75.5
68891;BME280;55932;48.702;8.884;2022-12-07T01:17:02;96130;;;3;75.5
68891;BME280;55932;48.702;8.884;2022-12-07T01:19:39;96130;;;3;75.5
68891;BME280;55932;48.702;8.884;2022-12-07T01:21:56;96120;;;2.9;76
68891;BME280;55932;48.702;8.884;2022-12-07T01:24:26;96130;;;2.8;76
68891;BME280;55932;48.702;8.884;2022-12-07T01:29:20;96130;;;2.9;75.5
68891;BME280;55932;48.702;8.884;2022-12-07T01:31:51;96130;;;2.9;75.5
68891;BME280;55932;48.702;8.884;2022-12-07T01:34:22;96130;;;2.8;76
68891;BME280;55932;48.702;8.884;2022-12-07T01:36:53;96140;;;2.8;76
68891;BME280;55932;48.702;8.884;2022-12-07T01:39:31;96140;;;2.9;75.5
68891;BME280;55932;48.702;8.884;2022-12-07T01:42:09;96140;;;2.8;76
68891;BME280;55932;48.702;8.884;2022-12-07T01:45:42;96140;;;2.8;76
68891;BME280;55932;48.702;8.884;2022-12-07T01:47:02;96150;;;2.8;76
68891;BME280;55932;48.702;8.884;2022-12-07T01:52:01;96140;;;2.8;75.5
68891;BME280;55932;48.702;8.884;2022-12-07T01:57:05;96140;;;2.8;75.5
68891;BME280;55932;48.702;8.884;2022-12-07T01:59:36;96140;;;2.8;75.5
68891;BME280;55932;48.702;8.884;2022-12-07T02:04:36;96140;;;2.8;75.5
68891;BME280;55932;48.702;8.884;2022-12-07T02:07:06;96140;;;2.7;75.5
68891;BME280;55932;48.702;8.884;2022-12-07T02:12:01;96150;;;2.7;75.5
68891;BME280;55932;48.702;8.884;2022-12-07T02:14:32;96150;;;2.6;75.5
68891;BME280;55932;48.702;8.884;2022-12-07T02:17:25;96150;;;2.7;75.5
68891;BME280;55932;48.702;8.884;2022-12-07T02:26:02;96140;;;2.7;75.5
68891;BME280;55932;48.702;8.884;2022-12-07T02:30:08;96140;;;2.7;75.5
68891;BME280;55932;48.702;8.884;2022-12-07T02:34:39;96140;;;2.7;75.5
68891;BME280;55932;48.702;8.884;2022-12-07T02:39:40;96130;;;2.6;75.5
68891;BME280;55932;48.702;8.884;2022-12-07T02:42:09;96130;;;2.6;75.5
68891;BME280;55932;48.702;8.884;2022-12-07T02:44:37;96130;;;2.6;75.5
68891;BME280;55932;48.702;8.884;2022-12-07T02:47:08;96140;;;2.6;75.5
68891;BME280;55932;48.702;8.884;2022-12-07T02:54:59;96130;;;2.6;75.5
68891;BME280;55932;48.702;8.884;2022-12-07T02:59:56;96120;;;2.5;75.5
68891;BME280;55932;48.702;8.884;2022-12-07T03:02:24;96120;;;2.5;75.5
68891;BME280;55932;48.702;8.884;2022-12-07T03:05:10;96120;;;2.6;75.5
68891;BME280;55932;48.702;8.884;2022-12-07T03:07:15;96110;;;2.6;75
68891;BME280;55932;48.702;8.884;2022-12-07T03:10:07;96120;;;2.6;75
68891;BME280;55932;48.702;8.884;2022-12-07T03:12:38;96110;;;2.5;75.5
68891;BME280;55932;48.702;8.884;2022-12-07T03:15:18;96120;;;2.5;75.5
68891;BME280;55932;48.702;8.884;2022-12-07T03:20:03;96110;;;2.5;75.5
68891;BME280;55932;48.702;8.884;2022-12-07T03:22:33;96110;;;2.5;75.5
68891;BME280;55932;48.702;8.884;2022-12-07T03:24:55;96110;;;2.4;75.5
68891;BME280;55932;48.702;8.884;2022-12-07T03:30:15;96110;;;2.4;75
68891;BME280;55932;48.702;8.884;2022-12-07T03:42:47;96110;;;2.4;75.5
68891;BME280;55932;48.702;8.884;2022-12-07T03:47:29;96100;;;2.4;75
68891;BME280;55932;48.702;8.884;2022-12-07T03:49:59;96110;;;2.4;75
68891;BME280;55932;48.702;8.884;2022-12-07T03:52:31;96110;;;2.4;75
68891;BME280;55932;48.702;8.884;2022-12-07T03:54:48;96110;;;2.4;75
68891;BME280;55932;48.702;8.884;2022-12-07T04:02:18;96110;;;2.3;75.5
68891;BME280;55932;48.702;8.884;2022-12-07T04:04:48;96100;;;2.3;75.5
68891;BME280;55932;48.702;8.884;2022-12-07T04:07:19;96100;;;2.3;75.5
68891;BME280;55932;48.702;8.884;2022-12-07T04:12:31;96090;;;2.3;75.5
68891;BME280;55932;48.702;8.884;2022-12-07T04:15:02;96090;;;2.2;75.5
68891;BME280;55932;48.702;8.884;2022-12-07T04:17:31;96100;;;2.2;75.5
68891;BME280;55932;48.702;8.884;2022-12-07T04:20:02;96090;;;2.2;75.5
68891;BME280;55932;48.702;8.884;2022-12-07T04:25:14;96090;;;2.2;75.5
68891;BME280;55932;48.702;8.884;2022-12-07T04:27:44;96090;;;2.1;75.5
68891;BME280;55932;48.702;8.884;2022-12-07T04:30:15;96090;;;2.1;75.5
68891;BME280;55932;48.702;8.884;2022-12-07T04:40:08;96080;;;2.1;75.5
68891;BME280;55932;48.702;8.884;2022-12-07T04:45:07;96080;;;1.9;76
68891;BME280;55932;48.702;8.884;2022-12-07T04:47:36;96080;;;1.7;76
68891;BME280;55932;48.702;8.884;2022-12-07T04:50:07;96070;;;1.5;76
68891;BME280;55932;48.702;8.884;2022-12-07T04:57:26;96080;;;0.7;76.5
68891;BME280;55932;48.702;8.884;2022-12-07T04:59:57;96070;;;0.7;76.5
68891;BME280;55932;48.702;8.884;2022-12-07T05:02:27;96070;;;0.8;77
68891;BME280;55932;48.702;8.884;2022-12-07T05:04:57;96070;;;0.9;76.5
68891;BME280;55932;48.702;8.884;2022-12-07T05:07:28;96060;;;0.9;76.5
68891;BME280;55932;48.702;8.884;2022-12-07T05:15:11;96060;;;0.7;76.5
68891;BME280;55932;48.702;8.884;2022-12-07T05:17:41;96060;;;0.7;76.5
68891;BME280;55932;48.702;8.884;2022-12-07T05:20:21;96060;;;0.6;76.5
68891;BME280;55932;48.702;8.884;2022-12-07T05:22:51;96060;;;0.5;76.5
68891;BME280;55932;48.702;8.884;2022-12-07T05:27:31;96070;;;0.1;76.5
68891;BME280;55932;48.702;8.884;2022-12-07T05:30:02;96070;;;0;76.5
68891;BME280;55932;48.702;8.884;2022-12-07T05:32:32;96070;;;-0.2;76.5
68891;BME280;55932;48.702;8.884;2022-12-07T05:35:02;96080;;;-0.2;76.5
68891;BME280;55932;48.702;8.884;2022-12-07T05:37:33;96080;;;-0.3;76.5
68891;BME280;55932;48.702;8.884;2022-12-07T05:40:04;96080;;;-0.3;77
68891;BME280;55932;48.702;8.884;2022-12-07T05:50:05;96090;;;-0.6;76.5
68891;BME280;55932;48.702;8.884;2022-12-07T05:52:36;96100;;;-0.7;76.5
68891;BME280;55932;48.702;8.884;2022-12-07T05:55:06;96090;;;-0.8;76.5
68891;BME280;55932;48.702;8.884;2022-12-07T05:57:36;96090;;;-0.8;76.5
68891;BME280;55932;48.702;8.884;2022-12-07T06:00:07;96090;;;-0.6;76
68891;BME280;55932;48.702;8.884;2022-12-07T06:02:38;96090;;;-0.5;76
68891;BME280;55932;48.702;8.884;2022-12-07T06:05:08;96090;;;-0.3;76
68891;BME280;55932;48.702;8.884;2022-12-07T06:10:09;96090;;;0;75.5
68891;BME280;55932;48.702;8.884;2022-12-07T06:13:03;96100;;;0;76
68891;BME280;55932;48.702;8.884;2022-12-07T06:15:35;96100;;;0.2;75.5
68891;BME280;55932;48.702;8.884;2022-12-07T06:18:04;96090;;;0.2;75.5
68891;BME280;55932;48.702;8.884;2022-12-07T06:30:25;96100;;;0.5;76
68891;BME280;55932;48.702;8.884;2022-12-07T06:32:55;96100;;;0.6;75.5
68891;BME280;55932;48.702;8.884;2022-12-07T06:35:25;96110;;;0.6;75.5
68891;BME280;55932;48.702;8.884;2022-12-07T06:37:44;96100;;;0.6;75.5
68891;BME280;55932;48.702;8.884;2022-12-07T06:45:16;96100;;;0.8;76
68891;BME280;55932;48.702;8.884;2022-12-07T06:47:47;96100;;;0.8;75.5
68891;BME280;55932;48.702;8.884;2022-12-07T06:50:17;96100;;;1;75.5
68891;BME280;55932;48.702;8.884;2022-12-07T06:52:48;96110;;;0.9;75.5
68891;BME280;55932;48.702;8.884;2022-12-07T06:55:18;96110;;;0.9;75.5
68891;BME280;55932;48.702;8.884;2022-12-07T06:58:00;96110;;;0.9;75.5
68891;BME280;55932;48.702;8.884;2022-12-07T07:00:30;96110;;;1;75.5
68891;BME280;55932;48.702;8.884;2022-12-07T07:03:00;96120;;;1;75.5
68891;BME280;55932;48.702;8.884;2022-12-07T07:05:30;96110;;;1;75.5
68891;BME280;55932;48.702;8.884;2022-12-07T07:08:10;96110;;;1;75.5
68891;BME280;55932;48.702;8.884;2022-12-07T07:12:49;96110;;;1.1;75
68891;BME280;55932;48.702;8.884;2022-12-07T07:15:20;96100;;;1.1;75.5
68891;BME280;55932;48.702;8.884;2022-12-07T07:17:51;96090;;;1;75.5
68891;BME280;55932;48.702;8.884;2022-12-07T07:20:21;96100;;;1.1;75.5
68891;BME280;55932;48.702;8.884;2022-12-07T07:22:55;96100;;;1.2;75.5
68891;BME280;55932;48.702;8.884;2022-12-07T07:30:43;96100;;;1.2;75.5
68891;BME280;55932;48.702;8.884;2022-12-07T07:35:43;96100;;;1.4;75.5
68891;BME280;55932;48.702;8.884;2022-12-07T07:38:05;96100;;;1.5;75.5
68891;BME280;55932;48.702;8.884;2022-12-07T07:43:35;96110;;;1.6;75.5
68891;BME280;55932;48.702;8.884;2022-12-07T07:45:48;96110;;;1.6;75.5
68891;BME280;55932;48.702;8.884;2022-12-07T07:48:18;96100;;;1.7;75.5
68891;BME280;55932;48.702;8.884;2022-12-07T07:53:08;96110;;;1.7;75.5
68891;BME280;55932;48.702;8.884;2022-12-07T07:55:38;96120;;;1.7;76
68891;BME280;55932;48.702;8.884;2022-12-07T07:58:17;96120;;;1.7;76
68891;BME280;55932;48.702;8.884;2022-12-07T08:00:47;96120;;;1.7;76
68891;BME280;55932;48.702;8.884;2022-12-07T08:03:08;96120;;;1.8;76
68891;BME280;55932;48.702;8.884;2022-12-07T08:05:28;96110;;;1.9;75.5
68891;BME280;55932;48.702;8.884;2022-12-07T08:07:58;96110;;;1.9;75.5
68891;BME280;55932;48.702;8.884;2022-12-07T08:10:40;96110;;;2;75.5
68891;BME280;55932;48.702;8.884;2022-12-07T08:18:12;96110;;;2.2;75.5
68891;BME280;55932;48.702;8.884;2022-12-07T08:20:42;96110;;;2.2;75.5
68891;BME280;55932;48.702;8.884;2022-12-07T08:25:52;96110;;;2.2;75.5
68891;BME280;55932;48.702;8.884;2022-12-07T08:28:12;96110;;;2.2;75.5
68891;BME280;55932;48.702;8.884;2022-12-07T08:30:42;96120;;;2.3;75.5
68891;BME280;55932;48.702;8.884;2022-12-07T08:33:12;96120;;;2.3;75.5
68891;BME280;55932;48.702;8.884;2022-12-07T08:35:42;96120;;;2.4;75.5
68891;BME280;55932;48.702;8.884;2022-12-07T08:38:12;96130;;;2.5;75.5
68891;BME280;55932;48.702;8.884;2022-12-07T08:40:42;96130;;;2.5;76
68891;BME280;55932;48.702;8.884;2022-12-07T08:50:54;96130;;;3.1;75
68891;BME280;55932;48.702;8.884;2022-12-07T08:53:34;96130;;;3.3;75
68891;BME280;55932;48.702;8.884;2022-12-07T08:55:45;96130;;;3.4;75
68891;BME280;55932;48.702;8.884;2022-12-07T08:58:15;96130;;;3.4;75
68891;BME280;55932;48.702;8.884;2022-12-07T09:00:47;96140;;;3.5;75
68891;BME280;55932;48.702;8.884;2022-12-07T09:03:04;96130;;;3.5;75
68891;BME280;55932;48.702;8.884;2022-12-07T09:05:35;96140;;;3.5;75
68891;BME280;55932;48.702;8.884;2022-12-07T09:13:07;96130;;;3.7;75
68891;BME280;55932;48.702;8.884;2022-12-07T09:15:37;96130;;;3.8;75
68891;BME280;55932;48.702;8.884;2022-12-07T09:18:07;96130;;;3.7;75
68891;BME280;55932;48.702;8.884;2022-12-07T09:20:38;96130;;;3.8;75
68891;BME280;55932;48.702;8.884;2022-12-07T09:23:08;96130;;;3.9;75
68891;BME280;55932;48.702;8.884;2022-12-07T09:25:39;96130;;;3.9;75
68891;BME280;55932;48.702;8.884;2022-12-07T09:28:21;96140;;;4;75
68891;BME280;55932;48.702;8.884;2022-12-07T09:30:52;96140;;;4;75
68891;BME280;55932;48.702;8.884;2022-12-07T09:33:27;96130;;;4.2;75
68891;BME280;55932;48.702;8.884;2022-12-07T09:35:51;96130;;;4.1;75
68891;BME280;55932;48.702;8.884;2022-12-07T09:40:40;96120;;;4.6;75
68891;BME280;55932;48.702;8.884;2022-12-07T09:43:11;96130;;;4.7;75
68891;BME280;55932;48.702;8.884;2022-12-07T09:45:41;96120;;;5;74.5
68891;BME280;55932;48.702;8.884;2022-12-07T09:48:20;96120;;;5;74.5
68891;BME280;55932;48.702;8.884;2022-12-07T09:50:42;96110;;;5.1;74.5
68891;BME280;55932;48.702;8.884;2022-12-07T09:53:15;96120;;;5.2;75
68891;BME280;55932;48.702;8.884;2022-12-07T09:55:43;96110;;;5.4;74.5
68891;BME280;55932;48.702;8.884;2022-12-07T10:03:27;96110;;;5.4;75
68891;BME280;55932;48.702;8.884;2022-12-07T10:06:05;96110;;;5.4;75
68891;BME280;55932;48.702;8.884;2022-12-07T10:15:57;96100;;;5.4;74.5
68891;BME280;55932;48.702;8.884;2022-12-07T10:18:30;96100;;;5.3;74.5
68891;BME280;55932;48.702;8.884;2022-12-07T10:21:10;96100;;;5.3;74.5
68891;BME280;55932;48.702;8.884;2022-12-07T10:23:28;96090;;;5.4;74.5
68891;BME280;55932;48.702;8.884;2022-12-07T10:25:58;96100;;;5.3;75
68891;BME280;55932;48.702;8.884;2022-12-07T10:28:37;96090;;;5.3;75
68891;BME280;55932;48.702;8.884;2022-12-07T10:33:34;96080;;;5.2;75
68891;BME280;55932;48.702;8.884;2022-12-07T10:35:48;96080;;;5.2;75
68891;BME280;55932;48.702;8.884;2022-12-07T10:38:19;96080;;;5.1;75
68891;BME280;55932;48.702;8.884;2022-12-07T10:40:49;96080;;;5.2;75
68891;BME280;55932;48.702;8.884;2022-12-07T10:43:20;96080;;;5.2;75
68891;BME280;55932;48.702;8.884;2022-12-07T10:45:58;96080;;;5.4;75
68891;BME280;55932;48.702;8.884;2022-12-07T10:53:38;96070;;;5.9;74.5
68891;BME280;55932;48.702;8.884;2022-12-07T10:56:17;96070;;;5.9;74.5
68891;BME280;55932;48.702;8.884;2022-12-07T11:06:19;96060;;;5.5;74.5
68891;BME280;55932;48.702;8.884;2022-12-07T11:11:33;96060;;;5.6;74
68891;BME280;55932;48.702;8.884;2022-12-07T11:13:48;96050;;;5.8;74
68891;BME280;55932;48.702;8.884;2022-12-07T11:18:40;96040;;;5.9;74.5
68891;BME280;55932;48.702;8.884;2022-12-07T11:21:19;96040;;;6.1;74.5
68891;BME280;55932;48.702;8.884;2022-12-07T11:23:49;96040;;;6.3;74.5
68891;BME280;55932;48.702;8.884;2022-12-07T11:26:17;96040;;;6.4;74.5
68891;BME280;55932;48.702;8.884;2022-12-07T11:28:41;96040;;;6.2;75
68891;BME280;55932;48.702;8.884;2022-12-07T11:31:10;96040;;;6;75
68891;BME280;55932;48.702;8.884;2022-12-07T11:36:12;96030;;;6;75
68891;BME280;55932;48.702;8.884;2022-12-07T11:38:40;96030;;;5.9;74.5
68891;BME280;55932;48.702;8.884;2022-12-07T11:41:08;96030;;;5.7;75
68891;BME280;55932;48.702;8.884;2022-12-07T11:43:47;96020;;;5.5;75.5
68891;BME280;55932;48.702;8.884;2022-12-07T11:48:30;96020;;;5.4;75.5
68891;BME280;55932;48.702;8.884;2022-12-07T11:50:58;96020;;;5.4;75.5
68891;BME280;55932;48.702;8.884;2022-12-07T11:53:31;96010;;;5.2;75.5
68891;BME280;55932;48.702;8.884;2022-12-07T11:56:00;96010;;;5.1;75.5
68891;BME280;55932;48.702;8.884;2022-12-07T11:58:35;96010;;;4.9;75.5
68891;BME280;55932;48.702;8.884;2022-12-07T12:01:19;96020;;;4.8;76
68891;BME280;55932;48.702;8.884;2022-12-07T12:03:30;96010;;;4.9;76
68891;BME280;55932;48.702;8.884;2022-12-07T12:08:55;96010;;;5.1;75.5
68891;BME280;55932;48.702;8.884;2022-12-07T12:12:00;96010;;;5.2;75.5
68891;BME280;55932;48.702;8.884;2022-12-07T12:13:58;96010;;;5.4;75.5
68891;BME280;55932;48.702;8.884;2022-12-07T12:18:47;96000;;;5.8;75
68891;BME280;55932;48.702;8.884;2022-12-07T12:21:14;96000;;;5.7;75
68891;BME280;55932;48.702;8.884;2022-12-07T12:26:03;96000;;;5.5;75.5
68891;BME280;55932;48.702;8.884;2022-12-07T12:28:41;96000;;;5.4;76
68891;BME280;55932;48.702;8.884;2022-12-07T12:38:48;95990;;;5;76
68891;BME280;55932;48.702;8.884;2022-12-07T12:41:06;96000;;;5.1;75.5
68891;BME280;55932;48.702;8.884;2022-12-07T12:46:36;95990;;;5;76
68891;BME280;55932;48.702;8.884;2022-12-07T12:48:48;95990;;;4.9;75.5
68891;BME280;55932;48.702;8.884;2022-12-07T12:51:35;95990;;;5.1;75.5
68891;BME280;55932;48.702;8.884;2022-12-07T12:53:37;95990;;;5;76
68891;BME280;55932;48.702;8.884;2022-12-07T12:56:13;95990;;;4.9;76
68891;BME280;55932;48.702;8.884;2022-12-07T13:03:40;95980;;;4.6;76
68891;BME280;55932;48.702;8.884;2022-12-07T13:06:34;95980;;;4.6;76
68891;BME280;55932;48.702;8.884;2022-12-07T13:08:41;95970;;;4.7;76
68891;BME280;55932;48.702;8.884;2022-12-07T13:11:20;95980;;;4.9;75.5
68891;BME280;55932;48.702;8.884;2022-12-07T13:14:34;95980;;;4.8;75.5
68891;BME280;55932;48.702;8.884;2022-12-07T13:16:36;95970;;;4.8;75.5
68891;BME280;55932;48.702;8.884;2022-12-07T13:26:36;95960;;;5.1;75.5
68891;BME280;55932;48.702;8.884;2022-12-07T13:29:20;95960;;;4.9;76
68891;BME280;55932;48.702;8.884;2022-12-07T13:31:58;95960;;;4.9;76
68891;BME280;55932;48.702;8.884;2022-12-07T13:33:56;95960;;;4.9;76
68891;BME280;55932;48.702;8.884;2022-12-07T13:39:17;95960;;;4.9;75.5
68891;BME280;55932;48.702;8.884;2022-12-07T13:41:41;95950;;;4.7;76
68891;BME280;55932;48.702;8.884;2022-12-07T13:48:58;95950;;;4.2;76
68891;BME280;55932;48.702;8.884;2022-12-07T13:51:29;95950;;;4;76.5
68891;BME280;55932;48.702;8.884;2022-12-07T13:54:09;95950;;;3.9;77
68891;BME280;55932;48.702;8.884;2022-12-07T13:56:18;95950;;;3.9;77
68891;BME280;55932;48.702;8.884;2022-12-07T13:58:48;95950;;;3.9;77
68891;BME280;55932;48.702;8.884;2022-12-07T14:01:19;95950;;;4.2;77
68891;BME280;55932;48.702;8.884;2022-12-07T14:03:50;95950;;;4.5;76.5
68891;BME280;55932;48.702;8.884;2022-12-07T14:06:22;95940;;;4.6;76
68891;BME280;55932;48.702;8.884;2022-12-07T14:08:50;95950;;;4.6;76
68891;BME280;55932;48.702;8.884;2022-12-07T14:11:21;95950;;;4.5;76
68891;BME280;55932;48.702;8.884;2022-12-07T14:24:08;95940;;;6.7;76
68891;BME280;55932;48.702;8.884;2022-12-07T14:26:34;95940;;;6.9;75.5
68891;BME280;55932;48.702;8.884;2022-12-07T14:29:20;95930;;;7.3;75.5
68891;BME280;55932;48.702;8.884;2022-12-07T14:33:53;95940;;;6;75
68891;BME280;55932;48.702;8.884;2022-12-07T14:36:23;95930;;;5.5;76
68891;BME280;55932;48.702;8.884;2022-12-07T14:48:56;95940;;;4.6;77
68891;BME280;55932;48.702;8.884;2022-12-07T14:51:26;95940;;;4.4;77.5
68891;BME280;55932;48.702;8.884;2022-12-07T14:53:57;95950;;;4.2;77.5
68891;BME280;55932;48.702;8.884;2022-12-07T14:56:27;95950;;;4.1;77.5
68891;BME280;55932;48.702;8.884;2022-12-07T14:58:58;95950;;;4.1;77
68891;BME280;55932;48.702;8.884;2022-12-07T15:01:28;95950;;;4;76.5
68891;BME280;55932;48.702;8.884;2022-12-07T15:04:10;95950;;;3.9;76.5
68891;BME280;55932;48.702;8.884;2022-12-07T15:06:40;95950;;;3.9;76.5
68891;BME280;55932;48.702;8.884;2022-12-07T15:09:10;95950;;;3.8;76.5
68891;BME280;55932;48.702;8.884;2022-12-07T15:14:00;95950;;;3.5;76.5
68891;BME280;55932;48.702;8.884;2022-12-07T15:16:30;95960;;;3.4;76.5
68891;BME280;55932;48.702;8.884;2022-12-07T15:19:00;95960;;;3.3;76.5
68891;BME280;55932;48.702;8.884;2022-12-07T15:24:01;95950;;;3.3;76.5
68891;BME280;55932;48.702;8.884;2022-12-07T15:26:32;95950;;;3.3;76.5
68891;BME280;55932;48.702;8.884;2022-12-07T15:29:02;95950;;;3.3;76.5
68891;BME280;55932;48.702;8.884;2022-12-07T15:36:36;95950;;;3.3;76
68891;BME280;55932;48.702;8.884;2022-12-07T15:49:37;95960;;;3.2;76.5
68891;BME280;55932;48.702;8.884;2022-12-07T15:52:08;95960;;;3.2;76.5
68891;BME280;55932;48.702;8.884;2022-12-07T15:56:49;95950;;;3.2;76.5
68891;BME280;55932;48.702;8.884;2022-12-07T15:59:22;95950;;;3.2;76.5
68891;BME280;55932;48.702;8.884;2022-12-07T16:01:49;95950;;;3.1;76.5
68891;BME280;55932;48.702;8.884;2022-12-07T16:14:10;95940;;;2.8;76.5
68891;BME280;55932;48.702;8.884;2022-12-07T16:16:41;95940;;;2.6;76.5
68891;BME280;55932;48.702;8.884;2022-12-07T16:19:11;95940;;;2.5;76.5
68891;BME280;55932;48.702;8.884;2022-12-07T16:24:23;95940;;;2.4;76.5
68891;BME280;55932;48.702;8.884;2022-12-07T16:26:53;95940;;;2.5;76.5
68891;BME280;55932;48.702;8.884;2022-12-07T16:29:23;95940;;;2.5;76.5
68891;BME280;55932;48.702;8.884;2022-12-07T16:31:43;95930;;;2.5;76.5
68891;BME280;55932;48.702;8.884;2022-12-07T16:34:16;95930;;;2.4;76.5
68891;BME280;55932;48.702;8.884;2022-12-07T16:41:45;95930;;;2.2;76.5
68891;BME280;55932;48.702;8.884;2022-12-07T16:44:16;95930;;;2.2;76
68891;BME280;55932;48.702;8.884;2022-12-07T16:51:58;95920;;;1.9;76
68891;BME280;55932;48.702;8.884;2022-12-07T16:54:28;95920;;;1.8;76
68891;BME280;55932;48.702;8.884;2022-12-07T16:56:58;95910;;;1.8;76
68891;BME280;55932;48.702;8.884;2022-12-07T16:59:28;95910;;;1.7;76
68891;BME280;55932;48.702;8.884;2022-12-07T17:06:48;95900;;;1.3;76.5
68891;BME280;55932;48.702;8.884;2022-12-07T17:14:42;95900;;;1.2;76.5
68891;BME280;55932;48.702;8.884;2022-12-07T17:17:13;95900;;;1.1;76.5
68891;BME280;55932;48.702;8.884;2022-12-07T17:19:43;95900;;;1.1;76.5
68891;BME280;55932;48.702;8.884;2022-12-07T17:22:14;95890;;;1.1;76
68891;BME280;55932;48.702;8.884;2022-12-07T17:24:45;95890;;;1;76
68891;BME280;55932;48.702;8.884;2022-12-07T17:27:17;95890;;;1;76.5
68891;BME280;55932;48.702;8.884;2022-12-07T17:29:43;95890;;;0.8;76.5
68891;BME280;55932;48.702;8.884;2022-12-07T17:32:04;95910;;;0.8;76.5
68891;BME280;55932;48.702;8.884;2022-12-07T17:34:34;95900;;;0.9;76.5
68891;BME280;55932;48.702;8.884;2022-12-07T17:39:23;95890;;;1.2;76
68891;BME280;55932;48.702;8.884;2022-12-07T17:41:54;95890;;;1.2;75.5
68891;BME280;55932;48.702;8.884;2022-12-07T17:44:24;95890;;;1.1;76
68891;BME280;55932;48.702;8.884;2022-12-07T17:51:56;95880;;;1;76
68891;BME280;55932;48.702;8.884;2022-12-07T17:54:27;95880;;;1;76
68891;BME280;55932;48.702;8.884;2022-12-07T17:56:57;95880;;;1;76
68891;BME280;55932;48.702;8.884;2022-12-07T18:02:09;95890;;;1.1;76.5
68891;BME280;55932;48.702;8.884;2022-12-07T18:04:39;95890;;;1.1;76
68891;BME280;55932;48.702;8.884;2022-12-07T18:09:39;95880;;;1.2;76
68891;BME280;55932;48.702;8.884;2022-12-07T18:17:23;95870;;;1.2;76
68891;BME280;55932;48.702;8.884;2022-12-07T18:19:52;95870;;;1.2;76
68891;BME280;55932;48.702;8.884;2022-12-07T18:22:22;95870;;;1.2;76
68891;BME280;55932;48.702;8.884;2022-12-07T18:29:54;95860;;;0.8;76
68891;BME280;55932;48.702;8.884;2022-12-07T18:42:26;95870;;;0;76.5
68891;BME280;55932;48.702;8.884;2022-12-07T18:44:57;95880;;;0;76.5
68891;BME280;55932;48.702;8.884;2022-12-07T18:47:27;95870;;;-0.2;77
68891;BME280;55932;48.702;8.884;2022-12-07T18:49:46;95880;;;-0.1;77
68891;BME280;55932;48.702;8.884;2022-12-07T18:52:28;95880;;;0;77
68891;BME280;55932;48.702;8.884;2022-12-07T18:54:58;95880;;;0.1;77
68891;BME280;55932;48.702;8.884;2022-12-07T18:59:49;95870;;;0.5;76
68891;BME280;55932;48.702;8.884;2022-12-07T19:02:18;95870;;;0.6;76
68891;BME280;55932;48.702;8.884;2022-12-07T19:07:51;95870;;;0.8;76
68891;BME280;55932;48.702;8.884;2022-12-07T19:10:15;95870;;;0.9;76
68891;BME280;55932;48.702;8.884;2022-12-07T19:15:03;95870;;;1.1;76
68891;BME280;55932;48.702;8.884;2022-12-07T19:17:32;95870;;;1.2;76
68891;BME280;55932;48.702;8.884;2022-12-07T19:25:03;95880;;;1.2;76
68891;BME280;55932;48.702;8.884;2022-12-07T19:27:45;95870;;;1.3;76
68891;BME280;55932;48.702;8.884;2022-12-07T19:30:22;95860;;;1.3;76
68891;BME280;55932;48.702;8.884;2022-12-07T19:32:35;95860;;;1.4;75.5
68891;BME280;55932;48.702;8.884;2022-12-07T19:34:53;95850;;;1.3;75.5
68891;BME280;55932;48.702;8.884;2022-12-07T19:37:24;95850;;;1.4;75.5
68891;BME280;55932;48.702;8.884;2022-12-07T19:39:54;95850;;;1.3;76
68891;BME280;55932;48.702;8.884;2022-12-07T19:42:23;95860;;;1.3;75.5
68891;BME280;55932;48.702;8.884;2022-12-07T19:44:54;95860;;;1.3;76
68891;BME280;55932;48.702;8.884;2022-12-07T19:47:33;95860;;;1.3;76
68891;BME280;55932;48.702;8.884;2022-12-07T19:50:03;95860;;;1.3;76
68891;BME280;55932;48.702;8.884;2022-12-07T19:52:24;95850;;;1.3;76
68891;BME280;55932;48.702;8.884;2022-12-07T19:57:24;95840;;;1.2;76
68891;BME280;55932;48.702;8.884;2022-12-07T20:02:25;95840;;;1.1;76
68891;BME280;55932;48.702;8.884;2022-12-07T20:04:55;95830;;;1.1;76.5
68891;BME280;55932;48.702;8.884;2022-12-07T20:07:25;95830;;;1.1;76
68891;BME280;55932;48.702;8.884;2022-12-07T20:09:55;95830;;;1.1;76
68891;BME280;55932;48.702;8.884;2022-12-07T20:14:44;95830;;;1;76
68891;BME280;55932;48.702;8.884;2022-12-07T20:17:15;95830;;;1;76.5
68891;BME280;55932;48.702;8.884;2022-12-07T20:19:45;95820;;;1.1;76
68891;BME280;55932;48.702;8.884;2022-12-07T20:22:16;95820;;;1;76
68891;BME280;55932;48.702;8.884;2022-12-07T20:24:46;95820;;;1;76
68891;BME280;55932;48.702;8.884;2022-12-07T20:27:17;95820;;;1;76.5
68891;BME280;55932;48.702;8.884;2022-12-07T20:29:47;95810;;;1;76.5
68891;BME280;55932;48.702;8.884;2022-12-07T20:32:18;95810;;;0.9;76.5
68891;BME280;55932;48.702;8.884;2022-12-07T20:42:40;95800;;;0.8;76.5
68891;BME280;55932;48.702;8.884;2022-12-07T20:45:02;95800;;;0.8;76.5
68891;BME280;55932;48.702;8.884;2022-12-07T20:47:31;95800;;;0.8;76.5
68891;BME280;55932;48.702;8.884;2022-12-07T20:50:02;95810;;;0.7;76.5
68891;BME280;55932;48.702;8.884;2022-12-07T20:52:31;95790;;;0.7;76.5